Terminal Aerodrome Forecast
Issued by NWS Paducah, KY

Home | Current Version | Previous Version | Text Only | Print | Product List | Glossary On
Versions: 1 2 3 4 5 6 7 8 9 10 11 12 13 14 15 16 17
631
FTUS43 KPAH 201120
TAFPAH
TAF
KPAH 201120Z 2012/2112 22011KT P6SM OVC018
      TEMPO 2012/2014 -RA
     FM210100 18009KT P6SM OVC012
      TEMPO 2107/2111 4SM -DZ BR=

USA.gov is the U.S. government's official web portal to all federal, state and local government web resources and services.